Terminal Aerodrome Forecast
Issued by NWS Burlington, VT

Current Version | Previous Version | Text Only | Print | Product List | Glossary On
Versions: 1 2 3 4 5 6 7 8 9 10 11 12 13 14 15
000
FTUS41 KBTV 031729
TAFBTV
TAF
KBTV 031729Z 0318/0418 21008KT P6SM SCT120 BKN250
     FM032100 18009KT P6SM VCSH BKN045 OVC090
     FM032300 17011G20KT 3SM -SN BR SCT015 OVC030
     FM040600 19012KT P6SM VCSH SCT008 OVC015
     FM041200 23013G22KT P6SM SCT020 OVC045=

USA.gov is the U.S. government's official web portal to all federal, state and local government web resources and services.